sensor_id;sensor_type;location;lat;lon;timestamp;pressure;altitude;pressure_sealevel;temperature;humidity
53715;BME280;39608;55.630;37.864;2023-08-07T00:00:43;99494.41;;;23.70;60.59
53715;BME280;39608;55.630;37.864;2023-08-07T00:05:47;99484.47;;;23.65;60.53
53715;BME280;39608;55.630;37.864;2023-08-07T00:10:49;99482.84;;;23.57;60.71
53715;BME280;39608;55.630;37.864;2023-08-07T00:15:51;99493.03;;;23.46;61.26
53715;BME280;39608;55.630;37.864;2023-08-07T00:20:55;99490.53;;;23.33;61.91
53715;BME280;39608;55.630;37.864;2023-08-07T00:25:57;99503.03;;;23.13;62.11
53715;BME280;39608;55.630;37.864;2023-08-07T00:30:59;99488.38;;;23.12;62.10
53715;BME280;39608;55.630;37.864;2023-08-07T00:36:03;99483.59;;;23.09;61.90
53715;BME280;39608;55.630;37.864;2023-08-07T00:41:05;99494.28;;;23.11;62.12
53715;BME280;39608;55.630;37.864;2023-08-07T00:46:08;99491.06;;;23.05;62.15
53715;BME280;39608;55.630;37.864;2023-08-07T00:51:11;99485.13;;;23.06;61.99
53715;BME280;39608;55.630;37.864;2023-08-07T00:56:14;99480.75;;;23.02;62.12
53715;BME280;39608;55.630;37.864;2023-08-07T01:01:16;99477.53;;;22.96;62.10
53715;BME280;39608;55.630;37.864;2023-08-07T01:06:20;99472.78;;;22.93;62.21
53715;BME280;39608;55.630;37.864;2023-08-07T01:11:30;99478.84;;;23.10;61.53
53715;BME280;39608;55.630;37.864;2023-08-07T01:16:39;99471.25;;;22.99;62.11
53715;BME280;39608;55.630;37.864;2023-08-07T01:21:48;99462.03;;;22.88;62.42
53715;BME280;39608;55.630;37.864;2023-08-07T01:26:51;99475.38;;;22.79;62.63
53715;BME280;39608;55.630;37.864;2023-08-07T01:31:56;99468.53;;;22.65;63.31
53715;BME280;39608;55.630;37.864;2023-08-07T01:37:02;99460.50;;;22.56;63.60
53715;BME280;39608;55.630;37.864;2023-08-07T01:42:05;99448.50;;;22.42;64.00
53715;BME280;39608;55.630;37.864;2023-08-07T01:47:07;99454.38;;;22.36;63.93
53715;BME280;39608;55.630;37.864;2023-08-07T01:52:11;99446.38;;;22.31;64.05
53715;BME280;39608;55.630;37.864;2023-08-07T01:57:13;99445.13;;;22.25;63.91
53715;BME280;39608;55.630;37.864;2023-08-07T02:02:15;99462.66;;;22.36;63.91
53715;BME280;39608;55.630;37.864;2023-08-07T02:07:19;99444.47;;;22.35;63.71
53715;BME280;39608;55.630;37.864;2023-08-07T02:12:21;99445.66;;;22.34;63.33
53715;BME280;39608;55.630;37.864;2023-08-07T02:17:24;99445.66;;;22.34;63.28
53715;BME280;39608;55.630;37.864;2023-08-07T02:22:27;99462.72;;;22.44;63.31
53715;BME280;39608;55.630;37.864;2023-08-07T02:27:29;99462.41;;;22.49;63.10
53715;BME280;39608;55.630;37.864;2023-08-07T02:32:31;99456.59;;;22.58;63.01
53715;BME280;39608;55.630;37.864;2023-08-07T02:37:35;99460.63;;;22.67;62.77
53715;BME280;39608;55.630;37.864;2023-08-07T02:42:37;99452.34;;;22.67;62.41
53715;BME280;39608;55.630;37.864;2023-08-07T02:47:39;99450.47;;;22.75;62.47
53715;BME280;39608;55.630;37.864;2023-08-07T02:52:42;99453.75;;;22.88;61.63
53715;BME280;39608;55.630;37.864;2023-08-07T02:57:44;99456.91;;;22.90;61.73
53715;BME280;39608;55.630;37.864;2023-08-07T03:02:46;99450.66;;;22.93;61.54
53715;BME280;39608;55.630;37.864;2023-08-07T03:07:50;99454.25;;;23.01;61.51
53715;BME280;39608;55.630;37.864;2023-08-07T03:12:52;99456.66;;;23.02;61.18
53715;BME280;39608;55.630;37.864;2023-08-07T03:17:54;99448.78;;;23.04;61.36
53715;BME280;39608;55.630;37.864;2023-08-07T03:22:57;99456.47;;;23.22;60.75
53715;BME280;39608;55.630;37.864;2023-08-07T03:27:59;99449.38;;;23.24;60.78
53715;BME280;39608;55.630;37.864;2023-08-07T03:33:01;99438.66;;;23.19;60.63
53715;BME280;39608;55.630;37.864;2023-08-07T03:38:05;99443.09;;;23.31;60.62
53715;BME280;39608;55.630;37.864;2023-08-07T03:43:07;99451.34;;;23.24;60.68
53715;BME280;39608;55.630;37.864;2023-08-07T03:48:09;99449.81;;;23.30;60.41
53715;BME280;39608;55.630;37.864;2023-08-07T03:53:13;99448.25;;;23.33;60.52
53715;BME280;39608;55.630;37.864;2023-08-07T03:58:15;99451.75;;;23.26;60.90
53715;BME280;39608;55.630;37.864;2023-08-07T04:03:17;99452.53;;;23.27;60.80
53715;BME280;39608;55.630;37.864;2023-08-07T04:08:20;99455.00;;;23.35;60.65
53715;BME280;39608;55.630;37.864;2023-08-07T04:13:22;99447.13;;;23.41;60.68
53715;BME280;39608;55.630;37.864;2023-08-07T04:18:24;99446.31;;;23.37;60.48
53715;BME280;39608;55.630;37.864;2023-08-07T04:23:28;99442.81;;;23.47;60.20
53715;BME280;39608;55.630;37.864;2023-08-07T04:28:32;99447.66;;;23.57;59.56
53715;BME280;39608;55.630;37.864;2023-08-07T04:33:34;99454.06;;;23.72;59.15
53715;BME280;39608;55.630;37.864;2023-08-07T04:38:38;99451.06;;;23.88;58.75
53715;BME280;39608;55.630;37.864;2023-08-07T04:43:40;99448.75;;;24.05;58.42
53715;BME280;39608;55.630;37.864;2023-08-07T04:48:43;99449.25;;;24.25;57.67
53715;BME280;39608;55.630;37.864;2023-08-07T04:53:46;99450.88;;;24.37;57.31
53715;BME280;39608;55.630;37.864;2023-08-07T04:58:51;99446.94;;;24.45;56.95
53715;BME280;39608;55.630;37.864;2023-08-07T05:03:53;99444.56;;;24.43;56.86
53715;BME280;39608;55.630;37.864;2023-08-07T05:08:56;99438.75;;;24.81;55.97
53715;BME280;39608;55.630;37.864;2023-08-07T05:13:58;99430.44;;;25.78;54.11
53715;BME280;39608;55.630;37.864;2023-08-07T05:19:00;99428.88;;;26.73;51.99
53715;BME280;39608;55.630;37.864;2023-08-07T05:24:04;99433.00;;;27.59;49.78
53715;BME280;39608;55.630;37.864;2023-08-07T05:29:06;99430.53;;;28.07;47.85
53715;BME280;39608;55.630;37.864;2023-08-07T05:34:08;99419.25;;;28.79;46.72
53715;BME280;39608;55.630;37.864;2023-08-07T05:39:12;99427.44;;;29.41;44.78
53715;BME280;39608;55.630;37.864;2023-08-07T05:44:14;99410.63;;;30.09;42.89
53715;BME280;39608;55.630;37.864;2023-08-07T05:49:16;99414.25;;;30.46;41.51
53715;BME280;39608;55.630;37.864;2023-08-07T05:54:20;99409.06;;;30.97;40.67
53715;BME280;39608;55.630;37.864;2023-08-07T05:59:22;99400.75;;;31.27;39.37
53715;BME280;39608;55.630;37.864;2023-08-07T06:04:24;99395.84;;;32.06;37.90
53715;BME280;39608;55.630;37.864;2023-08-07T06:09:27;99396.63;;;32.74;36.32
53715;BME280;39608;55.630;37.864;2023-08-07T06:14:29;99398.34;;;33.20;35.11
53715;BME280;39608;55.630;37.864;2023-08-07T06:19:31;99395.09;;;33.56;34.24
53715;BME280;39608;55.630;37.864;2023-08-07T06:24:35;99388.72;;;34.22;33.48
53715;BME280;39608;55.630;37.864;2023-08-07T06:29:37;99387.88;;;34.75;32.03
53715;BME280;39608;55.630;37.864;2023-08-07T06:34:39;99391.13;;;35.89;30.20
53715;BME280;39608;55.630;37.864;2023-08-07T06:39:42;99395.47;;;36.18;29.57
53715;BME280;39608;55.630;37.864;2023-08-07T06:44:45;99392.16;;;36.19;28.74
53715;BME280;39608;55.630;37.864;2023-08-07T06:49:47;99388.94;;;35.93;28.91
53715;BME280;39608;55.630;37.864;2023-08-07T06:54:50;99373.78;;;36.33;28.47
53715;BME280;39608;55.630;37.864;2023-08-07T06:59:53;99383.00;;;37.10;27.39
53715;BME280;39608;55.630;37.864;2023-08-07T07:04:55;99380.28;;;38.09;26.40
53715;BME280;39608;55.630;37.864;2023-08-07T07:09:58;99375.09;;;39.08;25.33
53715;BME280;39608;55.630;37.864;2023-08-07T07:15:01;99374.88;;;40.69;25.09
53715;BME280;39608;55.630;37.864;2023-08-07T07:20:05;99373.75;;;39.45;23.92
53715;BME280;39608;55.630;37.864;2023-08-07T07:25:11;99375.06;;;40.60;23.00
53715;BME280;39608;55.630;37.864;2023-08-07T07:30:13;99367.06;;;41.08;22.57
53715;BME280;39608;55.630;37.864;2023-08-07T07:35:15;99374.19;;;40.86;22.22
53715;BME280;39608;55.630;37.864;2023-08-07T07:40:19;99375.50;;;40.91;22.35
53715;BME280;39608;55.630;37.864;2023-08-07T07:45:21;99367.53;;;40.19;22.07
53715;BME280;39608;55.630;37.864;2023-08-07T07:50:23;99349.94;;;39.16;22.96
53715;BME280;39608;55.630;37.864;2023-08-07T07:55:26;99348.53;;;40.37;22.50
53715;BME280;39608;55.630;37.864;2023-08-07T08:00:28;99345.00;;;41.63;21.09
53715;BME280;39608;55.630;37.864;2023-08-07T08:05:30;99350.50;;;42.06;20.53
53715;BME280;39608;55.630;37.864;2023-08-07T08:10:33;99351.50;;;41.92;20.09
53715;BME280;39608;55.630;37.864;2023-08-07T08:15:38;99343.00;;;40.22;21.52
53715;BME280;39608;55.630;37.864;2023-08-07T08:20:40;99329.88;;;39.98;21.69
53715;BME280;39608;55.630;37.864;2023-08-07T08:25:44;99329.19;;;40.41;21.63
53715;BME280;39608;55.630;37.864;2023-08-07T08:30:46;99333.09;;;41.64;20.36
53715;BME280;39608;55.630;37.864;2023-08-07T08:35:48;99339.97;;;42.94;19.78
53715;BME280;39608;55.630;37.864;2023-08-07T08:40:51;99335.75;;;43.12;18.93
53715;BME280;39608;55.630;37.864;2023-08-07T08:45:53;99327.84;;;43.35;19.31
53715;BME280;39608;55.630;37.864;2023-08-07T08:50:56;99318.19;;;41.09;20.64
53715;BME280;39608;55.630;37.864;2023-08-07T08:56:00;99319.78;;;42.86;19.70
53715;BME280;39608;55.630;37.864;2023-08-07T09:01:03;99317.59;;;42.11;20.27
53715;BME280;39608;55.630;37.864;2023-08-07T09:06:06;99301.50;;;41.73;20.65
53715;BME280;39608;55.630;37.864;2023-08-07T09:11:10;99291.88;;;42.45;19.47
53715;BME280;39608;55.630;37.864;2023-08-07T09:16:14;99291.13;;;42.44;18.90
53715;BME280;39608;55.630;37.864;2023-08-07T09:21:18;99288.09;;;41.80;19.40
53715;BME280;39608;55.630;37.864;2023-08-07T09:26:23;99292.22;;;41.84;19.98
53715;BME280;39608;55.630;37.864;2023-08-07T09:31:26;99286.00;;;42.26;19.59
53715;BME280;39608;55.630;37.864;2023-08-07T09:36:29;99288.94;;;42.84;18.81
53715;BME280;39608;55.630;37.864;2023-08-07T09:41:32;99284.22;;;45.38;17.22
53715;BME280;39608;55.630;37.864;2023-08-07T09:46:41;99271.34;;;45.44;17.29
53715;BME280;39608;55.630;37.864;2023-08-07T09:51:44;99262.91;;;45.85;16.16
53715;BME280;39608;55.630;37.864;2023-08-07T09:56:48;99261.25;;;44.86;17.19
53715;BME280;39608;55.630;37.864;2023-08-07T10:01:50;99260.66;;;45.45;16.74
53715;BME280;39608;55.630;37.864;2023-08-07T10:06:52;99249.41;;;44.96;19.63
53715;BME280;39608;55.630;37.864;2023-08-07T10:11:56;99244.31;;;44.88;18.79
53715;BME280;39608;55.630;37.864;2023-08-07T10:17:00;99238.47;;;46.10;16.77
53715;BME280;39608;55.630;37.864;2023-08-07T10:22:04;99243.53;;;47.40;15.17
53715;BME280;39608;55.630;37.864;2023-08-07T10:27:09;99239.59;;;47.30;15.61
53715;BME280;39608;55.630;37.864;2023-08-07T10:32:13;99229.53;;;48.08;14.53
53715;BME280;39608;55.630;37.864;2023-08-07T10:37:40;99235.25;;;49.48;14.47
53715;BME280;39608;55.630;37.864;2023-08-07T10:42:57;99228.72;;;50.10;13.66
53715;BME280;39608;55.630;37.864;2023-08-07T10:48:06;99210.09;;;49.57;13.75
53715;BME280;39608;55.630;37.864;2023-08-07T10:53:08;99206.38;;;49.10;14.41
53715;BME280;39608;55.630;37.864;2023-08-07T10:58:22;99199.16;;;48.64;15.33
53715;BME280;39608;55.630;37.864;2023-08-07T11:03:28;99196.28;;;48.57;14.72
53715;BME280;39608;55.630;37.864;2023-08-07T11:08:30;99167.88;;;47.59;14.58
53715;BME280;39608;55.630;37.864;2023-08-07T11:13:34;99183.59;;;48.16;14.42
53715;BME280;39608;55.630;37.864;2023-08-07T11:18:37;99165.91;;;47.11;14.73
53715;BME280;39608;55.630;37.864;2023-08-07T11:23:41;99157.94;;;46.35;15.57
53715;BME280;39608;55.630;37.864;2023-08-07T11:28:47;99166.94;;;43.68;18.19
53715;BME280;39608;55.630;37.864;2023-08-07T11:33:50;99164.50;;;42.76;19.05
53715;BME280;39608;55.630;37.864;2023-08-07T11:38:55;99145.31;;;45.44;16.81
53715;BME280;39608;55.630;37.864;2023-08-07T11:43:58;99147.41;;;46.99;15.60
53715;BME280;39608;55.630;37.864;2023-08-07T11:49:01;99143.09;;;47.77;15.40
53715;BME280;39608;55.630;37.864;2023-08-07T11:54:04;99158.97;;;49.19;14.94
53715;BME280;39608;55.630;37.864;2023-08-07T11:59:08;99151.09;;;49.65;14.88
53715;BME280;39608;55.630;37.864;2023-08-07T12:04:10;99137.03;;;48.85;14.21
53715;BME280;39608;55.630;37.864;2023-08-07T12:09:12;99115.78;;;49.26;13.76
53715;BME280;39608;55.630;37.864;2023-08-07T12:14:16;99122.63;;;48.77;14.15
53715;BME280;39608;55.630;37.864;2023-08-07T12:19:18;99118.44;;;48.86;14.00
53715;BME280;39608;55.630;37.864;2023-08-07T12:24:20;99116.91;;;48.25;14.28
53715;BME280;39608;55.630;37.864;2023-08-07T12:29:25;99103.91;;;48.39;14.43
53715;BME280;39608;55.630;37.864;2023-08-07T12:34:29;99096.06;;;47.67;14.89
53715;BME280;39608;55.630;37.864;2023-08-07T12:39:33;99096.75;;;47.80;14.37
53715;BME280;39608;55.630;37.864;2023-08-07T12:44:36;99097.66;;;47.75;14.97
53715;BME280;39608;55.630;37.864;2023-08-07T12:49:38;99081.63;;;47.88;14.83
53715;BME280;39608;55.630;37.864;2023-08-07T12:54:40;99071.22;;;47.77;14.63
53715;BME280;39608;55.630;37.864;2023-08-07T12:59:44;99073.47;;;48.75;14.31
53715;BME280;39608;55.630;37.864;2023-08-07T13:04:46;99060.84;;;48.86;13.99
53715;BME280;39608;55.630;37.864;2023-08-07T13:09:48;99062.94;;;48.77;14.29
53715;BME280;39608;55.630;37.864;2023-08-07T13:14:51;99046.56;;;47.82;15.36
53715;BME280;39608;55.630;37.864;2023-08-07T13:19:53;99039.75;;;44.05;18.30
53715;BME280;39608;55.630;37.864;2023-08-07T13:24:55;99026.00;;;43.35;19.53
53715;BME280;39608;55.630;37.864;2023-08-07T13:29:59;99032.88;;;44.52;18.14
53715;BME280;39608;55.630;37.864;2023-08-07T13:35:01;99015.56;;;45.23;17.03
53715;BME280;39608;55.630;37.864;2023-08-07T13:40:07;99010.75;;;44.85;17.29
53715;BME280;39608;55.630;37.864;2023-08-07T13:45:13;99019.69;;;44.95;17.33
53715;BME280;39608;55.630;37.864;2023-08-07T13:50:15;99011.94;;;45.09;17.95
53715;BME280;39608;55.630;37.864;2023-08-07T13:55:17;98993.72;;;44.28;18.08
53715;BME280;39608;55.630;37.864;2023-08-07T14:00:22;98996.97;;;44.00;18.67
53715;BME280;39608;55.630;37.864;2023-08-07T14:05:24;98973.69;;;43.71;18.81
53715;BME280;39608;55.630;37.864;2023-08-07T14:10:26;98985.75;;;43.83;18.64
53715;BME280;39608;55.630;37.864;2023-08-07T14:15:30;98976.53;;;43.71;19.02
53715;BME280;39608;55.630;37.864;2023-08-07T14:20:32;98963.03;;;43.28;19.12
53715;BME280;39608;55.630;37.864;2023-08-07T14:25:34;98962.53;;;43.04;18.82
53715;BME280;39608;55.630;37.864;2023-08-07T14:30:40;98957.53;;;42.50;19.64
53715;BME280;39608;55.630;37.864;2023-08-07T14:35:43;98948.69;;;41.70;20.15
53715;BME280;39608;55.630;37.864;2023-08-07T14:40:45;98948.31;;;41.20;20.72
53715;BME280;39608;55.630;37.864;2023-08-07T14:45:48;98948.66;;;40.94;21.11
53715;BME280;39608;55.630;37.864;2023-08-07T14:50:51;98941.13;;;40.17;21.81
53715;BME280;39608;55.630;37.864;2023-08-07T14:55:53;98932.03;;;38.87;23.28
53715;BME280;39608;55.630;37.864;2023-08-07T15:00:56;98940.78;;;38.57;23.77
53715;BME280;39608;55.630;37.864;2023-08-07T15:05:58;98933.34;;;38.28;23.76
53715;BME280;39608;55.630;37.864;2023-08-07T15:11:00;98935.41;;;37.80;24.46
53715;BME280;39608;55.630;37.864;2023-08-07T15:16:04;98926.47;;;36.90;25.59
53715;BME280;39608;55.630;37.864;2023-08-07T15:21:06;98927.00;;;36.14;26.53
53715;BME280;39608;55.630;37.864;2023-08-07T15:26:09;98911.63;;;35.61;27.05
53715;BME280;39608;55.630;37.864;2023-08-07T15:31:12;98920.38;;;34.81;28.19
53715;BME280;39608;55.630;37.864;2023-08-07T15:36:14;98906.47;;;33.60;29.63
53715;BME280;39608;55.630;37.864;2023-08-07T15:41:16;98889.34;;;32.58;31.10
53715;BME280;39608;55.630;37.864;2023-08-07T15:46:20;98889.84;;;31.90;32.23
53715;BME280;39608;55.630;37.864;2023-08-07T15:51:22;98893.38;;;31.47;33.25
53715;BME280;39608;55.630;37.864;2023-08-07T15:56:24;98879.91;;;31.07;33.81
53715;BME280;39608;55.630;37.864;2023-08-07T16:01:27;98887.53;;;30.67;34.78
53715;BME280;39608;55.630;37.864;2023-08-07T16:06:29;98893.50;;;30.40;35.43
53715;BME280;39608;55.630;37.864;2023-08-07T16:11:31;98893.06;;;30.29;35.52
53715;BME280;39608;55.630;37.864;2023-08-07T16:16:35;98894.25;;;30.15;35.77
53715;BME280;39608;55.630;37.864;2023-08-07T16:21:38;98876.53;;;29.92;36.45
53715;BME280;39608;55.630;37.864;2023-08-07T16:26:40;98888.75;;;29.98;36.52
53715;BME280;39608;55.630;37.864;2023-08-07T16:31:44;98882.50;;;30.07;36.51
53715;BME280;39608;55.630;37.864;2023-08-07T16:36:46;98885.38;;;30.03;36.83
53715;BME280;39608;55.630;37.864;2023-08-07T16:41:48;98874.88;;;30.08;36.84
53715;BME280;39608;55.630;37.864;2023-08-07T16:46:53;98876.03;;;30.10;36.59
53715;BME280;39608;55.630;37.864;2023-08-07T16:51:55;98873.66;;;29.96;36.84
53715;BME280;39608;55.630;37.864;2023-08-07T16:56:59;98863.88;;;29.88;37.35
53715;BME280;39608;55.630;37.864;2023-08-07T17:02:02;98872.09;;;29.78;37.58
53715;BME280;39608;55.630;37.864;2023-08-07T17:07:05;98873.13;;;29.55;38.12
53715;BME280;39608;55.630;37.864;2023-08-07T17:12:08;98875.97;;;29.39;38.50
53715;BME280;39608;55.630;37.864;2023-08-07T17:17:11;98880.94;;;29.31;38.65
53715;BME280;39608;55.630;37.864;2023-08-07T17:22:13;98885.81;;;29.10;39.52
53715;BME280;39608;55.630;37.864;2023-08-07T17:27:15;98879.72;;;28.99;39.50
53715;BME280;39608;55.630;37.864;2023-08-07T17:32:18;98877.53;;;28.90;39.65
53715;BME280;39608;55.630;37.864;2023-08-07T17:37:20;98870.81;;;28.71;40.09
53715;BME280;39608;55.630;37.864;2023-08-07T17:42:22;98880.69;;;28.56;40.42
53715;BME280;39608;55.630;37.864;2023-08-07T17:47:26;98866.22;;;28.24;40.97
53715;BME280;39608;55.630;37.864;2023-08-07T17:52:28;98879.91;;;28.19;41.46
53715;BME280;39608;55.630;37.864;2023-08-07T17:57:32;98875.97;;;28.16;41.53
53715;BME280;39608;55.630;37.864;2023-08-07T18:02:35;98872.13;;;28.10;41.69
53715;BME280;39608;55.630;37.864;2023-08-07T18:07:38;98865.59;;;27.96;41.80
53715;BME280;39608;55.630;37.864;2023-08-07T18:12:40;98874.00;;;27.73;42.58
53715;BME280;39608;55.630;37.864;2023-08-07T18:17:44;98866.50;;;27.26;43.37
53715;BME280;39608;55.630;37.864;2023-08-07T18:22:46;98881.59;;;27.01;44.37
53715;BME280;39608;55.630;37.864;2023-08-07T18:27:48;98887.44;;;26.83;45.09
53715;BME280;39608;55.630;37.864;2023-08-07T18:32:52;98900.78;;;26.68;45.21
53715;BME280;39608;55.630;37.864;2023-08-07T18:37:54;98904.06;;;26.59;45.66
53715;BME280;39608;55.630;37.864;2023-08-07T18:42:56;98902.25;;;26.45;46.21
53715;BME280;39608;55.630;37.864;2023-08-07T18:47:59;98917.06;;;26.39;45.77
53715;BME280;39608;55.630;37.864;2023-08-07T18:53:02;98900.53;;;26.24;46.29
53715;BME280;39608;55.630;37.864;2023-08-07T18:58:04;98897.91;;;26.13;46.92
53715;BME280;39608;55.630;37.864;2023-08-07T19:03:07;98902.34;;;26.07;47.13
53715;BME280;39608;55.630;37.864;2023-08-07T19:08:09;98898.88;;;25.96;47.01
53715;BME280;39608;55.630;37.864;2023-08-07T19:13:11;98888.69;;;25.86;47.59
53715;BME280;39608;55.630;37.864;2023-08-07T19:18:15;98890.28;;;25.83;47.67
53715;BME280;39608;55.630;37.864;2023-08-07T19:23:17;98869.03;;;25.69;47.53
53715;BME280;39608;55.630;37.864;2023-08-07T19:28:19;98864.75;;;25.61;48.03
53715;BME280;39608;55.630;37.864;2023-08-07T19:33:22;98869.94;;;25.59;48.04
53715;BME280;39608;55.630;37.864;2023-08-07T19:38:24;98872.41;;;25.50;48.12
53715;BME280;39608;55.630;37.864;2023-08-07T19:43:26;98854.97;;;25.45;48.31
53715;BME280;39608;55.630;37.864;2023-08-07T19:48:30;98851.53;;;25.34;48.20
53715;BME280;39608;55.630;37.864;2023-08-07T19:53:32;98840.06;;;25.25;48.33
53715;BME280;39608;55.630;37.864;2023-08-07T19:58:34;98847.28;;;25.19;48.40
53715;BME280;39608;55.630;37.864;2023-08-07T20:03:38;98839.81;;;25.12;48.70
53715;BME280;39608;55.630;37.864;2023-08-07T20:08:40;98835.84;;;25.09;48.31
53715;BME280;39608;55.630;37.864;2023-08-07T20:13:42;98821.22;;;25.05;48.69
53715;BME280;39608;55.630;37.864;2023-08-07T20:18:47;98816.91;;;25.04;48.60
53715;BME280;39608;55.630;37.864;2023-08-07T20:23:49;98800.38;;;24.90;49.01
53715;BME280;39608;55.630;37.864;2023-08-07T20:28:51;98774.78;;;24.71;49.71
53715;BME280;39608;55.630;37.864;2023-08-07T20:33:54;98786.38;;;24.55;49.99
53715;BME280;39608;55.630;37.864;2023-08-07T20:38:58;98790.50;;;24.25;50.89
53715;BME280;39608;55.630;37.864;2023-08-07T20:44:01;98800.19;;;23.92;52.29
53715;BME280;39608;55.630;37.864;2023-08-07T20:49:05;98808.13;;;23.75;52.83
53715;BME280;39608;55.630;37.864;2023-08-07T20:54:07;98814.50;;;23.65;53.50
53715;BME280;39608;55.630;37.864;2023-08-07T20:59:09;98819.25;;;23.65;53.93
53715;BME280;39608;55.630;37.864;2023-08-07T21:04:13;98810.56;;;23.63;53.95
53715;BME280;39608;55.630;37.864;2023-08-07T21:09:15;98808.59;;;23.63;53.92
53715;BME280;39608;55.630;37.864;2023-08-07T21:14:17;98799.47;;;23.66;53.83
53715;BME280;39608;55.630;37.864;2023-08-07T21:19:21;98809.34;;;23.71;54.19
53715;BME280;39608;55.630;37.864;2023-08-07T21:24:23;98794.75;;;23.56;54.49
53715;BME280;39608;55.630;37.864;2023-08-07T21:29:25;98782.13;;;23.55;54.73
53715;BME280;39608;55.630;37.864;2023-08-07T21:34:28;98771.06;;;23.51;54.59
53715;BME280;39608;55.630;37.864;2023-08-07T21:39:30;98789.31;;;23.27;55.57
53715;BME280;39608;55.630;37.864;2023-08-07T21:44:32;98786.16;;;23.25;55.46
53715;BME280;39608;55.630;37.864;2023-08-07T21:49:36;98782.97;;;23.41;54.83
53715;BME280;39608;55.630;37.864;2023-08-07T21:54:38;98780.56;;;23.47;54.83
53715;BME280;39608;55.630;37.864;2023-08-07T21:59:40;98765.16;;;23.49;54.40
53715;BME280;39608;55.630;37.864;2023-08-07T22:04:43;98776.97;;;23.57;54.15
53715;BME280;39608;55.630;37.864;2023-08-07T22:09:45;98773.00;;;23.54;54.20
53715;BME280;39608;55.630;37.864;2023-08-07T22:14:47;98777.38;;;23.55;54.00
53715;BME280;39608;55.630;37.864;2023-08-07T22:19:51;98790.78;;;23.64;53.69
53715;BME280;39608;55.630;37.864;2023-08-07T22:24:53;98820.03;;;23.69;53.53
53715;BME280;39608;55.630;37.864;2023-08-07T22:29:55;98850.06;;;23.81;53.11
53715;BME280;39608;55.630;37.864;2023-08-07T22:35:00;98869.03;;;23.86;53.27
53715;BME280;39608;55.630;37.864;2023-08-07T22:40:06;98842.19;;;23.69;53.77
53715;BME280;39608;55.630;37.864;2023-08-07T22:45:11;98840.28;;;23.48;54.64
53715;BME280;39608;55.630;37.864;2023-08-07T22:50:14;98821.31;;;23.35;54.77
53715;BME280;39608;55.630;37.864;2023-08-07T22:55:16;98806.31;;;23.26;55.08
53715;BME280;39608;55.630;37.864;2023-08-07T23:00:18;98808.69;;;23.23;55.33
53715;BME280;39608;55.630;37.864;2023-08-07T23:05:22;98796.44;;;23.10;55.67
53715;BME280;39608;55.630;37.864;2023-08-07T23:10:24;98798.81;;;22.97;56.00
53715;BME280;39608;55.630;37.864;2023-08-07T23:15:26;98801.97;;;22.85;56.27
53715;BME280;39608;55.630;37.864;2023-08-07T23:20:30;98800.00;;;22.89;56.27
53715;BME280;39608;55.630;37.864;2023-08-07T23:25:32;98788.53;;;22.80;56.58
53715;BME280;39608;55.630;37.864;2023-08-07T23:30:34;98763.69;;;22.72;56.47
53715;BME280;39608;55.630;37.864;2023-08-07T23:35:37;98771.16;;;22.76;56.76
53715;BME280;39608;55.630;37.864;2023-08-07T23:40:39;98766.81;;;22.56;57.18
53715;BME280;39608;55.630;37.864;2023-08-07T23:45:42;98770.78;;;22.52;57.39
53715;BME280;39608;55.630;37.864;2023-08-07T23:50:45;98768.38;;;22.47;57.58
53715;BME280;39608;55.630;37.864;2023-08-07T23:55:47;98764.84;;;22.43;57.59
